Time;durP1;ratioP1;P1;durP2;ratioP2;P2;SDS_P1;SDS_P2;PMS_P1;PMS_P2;Temp;Humidity;BMP_temperature;BMP_pressure;BME280_temperature;BME280_humidity;BME280_pressure;Samples;Min_cycle;Max_cycle;Signal;HPM_P1;HPM_P2
2023/10/08 00:00:53;;;;;;;3.15;1.40;;;15.20;99.90;;;;;;5097510;28;20052;-64
2023/10/08 00:03:22;;;;;;;3.90;1.55;;;15.20;99.90;;;;;;5079067;28;20898;-64
2023/10/08 00:05:51;;;;;;;2.95;1.30;;;15.10;99.90;;;;;;5096634;28;20140;-65
2023/10/08 00:08:17;;;;;;;1.30;1.00;;;15.00;99.90;;;;;;5097428;28;20529;-64
2023/10/08 00:10:44;;;;;;;1.58;1.42;;;14.90;99.90;;;;;;5096025;28;20096;-65
2023/10/08 00:13:15;;;;;;;1.85;1.00;;;14.90;99.90;;;;;;5078997;28;20051;-65
2023/10/08 00:16:08;;;;;;;0.93;0.85;;;14.80;99.90;;;;;;5095943;28;20048;-65
2023/10/08 00:18:34;;;;;;;0.80;0.80;;;14.80;99.90;;;;;;5096281;28;20078;-64
2023/10/08 00:26:40;;;;;;;3.42;0.80;;;14.70;99.90;;;;;;5062420;28;20100;-64
2023/10/08 00:29:16;;;;;;;3.55;1.10;;;14.70;99.90;;;;;;5096389;28;20052;-66
2023/10/08 00:31:44;;;;;;;2.30;0.70;;;14.60;99.90;;;;;;5096176;28;20063;-65
2023/10/08 00:34:14;;;;;;;0.82;0.80;;;14.60;99.90;;;;;;5078154;28;20054;-64
2023/10/08 00:36:45;;;;;;;2.30;0.90;;;14.60;99.90;;;;;;5100852;28;20091;-65
2023/10/08 00:39:16;;;;;;;2.28;0.75;;;14.50;99.90;;;;;;5117236;28;20051;-66
2023/10/08 00:41:45;;;;;;;0.82;0.70;;;14.50;99.90;;;;;;5116529;28;20550;-65
2023/10/08 00:44:15;;;;;;;2.17;0.65;;;14.50;99.90;;;;;;5116984;28;20035;-66
2023/10/08 00:46:47;;;;;;;1.60;0.73;;;14.50;99.90;;;;;;5116858;28;20047;-65
2023/10/08 00:49:24;;;;;;;1.35;0.80;;;14.50;99.90;;;;;;5115281;28;20058;-65
2023/10/08 00:52:57;;;;;;;0.70;0.70;;;14.40;99.90;;;;;;5098562;28;20048;-65
2023/10/08 00:57:22;;;;;;;1.08;0.88;;;14.40;99.90;;;;;;5116132;28;20052;-65
2023/10/08 00:59:53;;;;;;;0.68;0.68;;;14.40;99.90;;;;;;5116639;28;20579;-65
2023/10/08 01:02:28;;;;;;;1.05;0.90;;;14.40;99.90;;;;;;5115337;28;20454;-65
2023/10/08 01:04:56;;;;;;;3.28;1.20;;;14.40;99.90;;;;;;5117083;28;20056;-65
2023/10/08 01:07:24;;;;;;;2.25;1.48;;;14.30;99.90;;;;;;5120320;28;20047;-65
2023/10/08 01:09:51;;;;;;;4.22;1.50;;;14.30;99.90;;;;;;5120838;28;20052;-66
2023/10/08 01:12:34;;;;;;;1.90;1.70;;;14.30;99.90;;;;;;5121077;28;20055;-65
2023/10/08 01:18:14;;;;;;;2.05;1.90;;;14.30;99.90;;;;;;5120511;28;20047;-65
2023/10/08 01:20:33;;;;;;;2.20;1.90;;;14.30;99.90;;;;;;5101447;28;20109;-65
2023/10/08 01:23:16;;;;;;;2.35;2.10;;;14.30;99.90;;;;;;5120547;28;20550;-66
2023/10/08 01:25:43;;;;;;;2.53;2.33;;;14.30;99.90;;;;;;5104238;28;20046;-65
2023/10/08 01:28:18;;;;;;;2.15;1.92;;;14.30;99.90;;;;;;5119574;28;20043;-65
2023/10/08 01:30:46;;;;;;;2.80;1.90;;;14.20;99.90;;;;;;5102318;28;20043;-64
2023/10/08 01:33:17;;;;;;;2.28;1.73;;;14.20;99.90;;;;;;5119539;28;20050;-65
2023/10/08 01:35:43;;;;;;;1.70;1.60;;;14.20;99.90;;;;;;5119875;28;20047;-65
2023/10/08 01:38:16;;;;;;;1.83;1.73;;;14.20;99.90;;;;;;5120631;28;20044;-65
2023/10/08 01:40:42;;;;;;;1.58;1.48;;;14.10;99.90;;;;;;5119155;28;20044;-65
2023/10/08 01:43:10;;;;;;;1.38;1.27;;;14.20;99.90;;;;;;5120352;28;20054;-66
2023/10/08 01:45:40;;;;;;;1.85;1.25;;;14.20;99.90;;;;;;5118912;28;20051;-65
2023/10/08 01:48:09;;;;;;;1.42;1.25;;;14.30;99.90;;;;;;5120244;28;20107;-65
2023/10/08 01:50:37;;;;;;;1.67;1.20;;;14.30;99.90;;;;;;5119800;28;20039;-66
2023/10/08 01:53:06;;;;;;;1.35;1.25;;;14.20;99.90;;;;;;5119105;28;20054;-65
2023/10/08 01:55:44;;;;;;;2.45;1.10;;;14.20;99.90;;;;;;5119922;28;20043;-65
2023/10/08 01:58:12;;;;;;;2.05;1.48;;;14.20;99.90;;;;;;5118658;28;20036;-65
2023/10/08 02:00:45;;;;;;;1.20;1.10;;;14.20;99.90;;;;;;5119477;28;20143;-65
2023/10/08 02:03:15;;;;;;;1.83;1.30;;;14.20;99.90;;;;;;5119291;28;20073;-65
2023/10/08 02:05:44;;;;;;;1.40;1.10;;;14.30;99.90;;;;;;5119069;28;20040;-66
2023/10/08 02:08:14;;;;;;;1.63;1.10;;;14.20;99.90;;;;;;5119680;28;20063;-65
2023/10/08 02:10:42;;;;;;;1.33;1.23;;;14.20;99.90;;;;;;5100089;28;20077;-66
2023/10/08 02:13:09;;;;;;;3.13;1.05;;;14.20;99.90;;;;;;5119497;28;20494;-66
2023/10/08 02:15:49;;;;;;;1.05;1.00;;;14.20;99.90;;;;;;5117531;28;20047;-66
2023/10/08 02:18:15;;;;;;;1.48;1.20;;;14.20;99.90;;;;;;5119339;28;20043;-66
2023/10/08 02:20:41;;;;;;;1.15;0.90;;;14.20;99.90;;;;;;5119264;28;20131;-66
2023/10/08 02:23:07;;;;;;;3.10;1.10;;;14.20;99.90;;;;;;5118502;28;20050;-65
2023/10/08 02:25:35;;;;;;;0.93;0.90;;;14.20;99.90;;;;;;5119092;28;20051;-65
2023/10/08 02:28:03;;;;;;;0.82;0.82;;;14.10;99.90;;;;;;5117613;28;20059;-65
2023/10/08 02:30:31;;;;;;;0.93;0.93;;;14.10;99.90;;;;;;5118747;28;20051;-65
2023/10/08 02:32:58;;;;;;;1.20;1.10;;;14.20;99.90;;;;;;5118023;28;20086;-65
2023/10/08 02:35:24;;;;;;;2.15;1.10;;;14.10;99.90;;;;;;5118941;28;20128;-66
2023/10/08 02:37:49;;;;;;;1.45;1.10;;;14.10;99.90;;;;;;5118901;28;20044;-66
2023/10/08 02:40:27;;;;;;;2.88;0.98;;;14.10;99.90;;;;;;5118156;28;20043;-66
2023/10/08 02:42:58;;;;;;;0.90;0.90;;;14.10;99.90;;;;;;5100429;28;20055;-65
2023/10/08 02:45:27;;;;;;;1.58;1.13;;;14.10;99.90;;;;;;5117190;28;20044;-66
2023/10/08 02:47:55;;;;;;;1.70;1.10;;;14.10;99.90;;;;;;5118874;28;20047;-66
2023/10/08 02:50:22;;;;;;;3.22;1.10;;;14.10;99.90;;;;;;5118500;28;20062;-66
2023/10/08 02:52:50;;;;;;;1.23;1.13;;;14.10;99.90;;;;;;5118296;28;20813;-66
2023/10/08 02:55:35;;;;;;;2.00;1.55;;;14.00;99.90;;;;;;5117682;28;20400;-66
2023/10/08 02:58:04;;;;;;;2.28;1.38;;;14.20;99.90;;;;;;5098001;28;21197;-66
2023/10/08 03:00:34;;;;;;;1.67;1.40;;;14.30;99.90;;;;;;5117416;28;20424;-65
2023/10/08 03:03:02;;;;;;;2.65;1.30;;;14.40;99.90;;;;;;5117980;28;20047;-65
2023/10/08 03:05:35;;;;;;;1.42;1.05;;;14.20;99.90;;;;;;5118439;28;20051;-65
2023/10/08 03:08:10;;;;;;;1.63;1.20;;;14.10;99.90;;;;;;5118821;28;20051;-65
2023/10/08 03:10:41;;;;;;;0.80;0.80;;;14.10;99.90;;;;;;5117266;28;20047;-66
2023/10/08 03:13:09;;;;;;;2.35;1.08;;;14.10;99.90;;;;;;5118060;28;20059;-65
2023/10/08 03:15:40;;;;;;;1.65;1.10;;;14.00;99.90;;;;;;5117164;28;20077;-66
2023/10/08 03:18:14;;;;;;;1.13;1.02;;;14.00;99.90;;;;;;5118510;28;20112;-66
2023/10/08 03:20:45;;;;;;;1.05;0.90;;;14.00;99.90;;;;;;5118332;28;20100;-66
2023/10/08 03:23:34;;;;;;;1.55;1.45;;;14.00;99.90;;;;;;5099109;28;20055;-64
2023/10/08 03:26:10;;;;;;;1.10;1.00;;;14.00;99.90;;;;;;5118261;28;20058;-67
2023/10/08 03:28:37;;;;;;;1.23;1.13;;;13.90;99.90;;;;;;5116778;28;20043;-66
2023/10/08 03:31:13;;;;;;;1.80;0.90;;;14.00;99.90;;;;;;5117943;28;20055;-66
2023/10/08 03:33:39;;;;;;;3.30;1.40;;;13.90;99.90;;;;;;5118164;28;20040;-66
2023/10/08 03:36:14;;;;;;;2.47;1.02;;;13.90;99.90;;;;;;5116568;28;20048;-66
2023/10/08 03:38:50;;;;;;;2.53;1.17;;;13.90;99.90;;;;;;5117575;28;20147;-66
2023/10/08 03:41:28;;;;;;;1.45;1.35;;;13.90;99.90;;;;;;5116621;28;20129;-65
2023/10/08 03:44:12;;;;;;;1.50;1.40;;;13.90;99.90;;;;;;5117222;28;20075;-67
2023/10/08 03:46:46;;;;;;;3.30;1.40;;;13.90;99.90;;;;;;5117755;28;20048;-66
2023/10/08 03:51:44;;;;;;;6.90;1.60;;;13.90;99.90;;;;;;5117615;28;20075;-66
2023/10/08 03:56:41;;;;;;;1.48;1.38;;;13.90;99.90;;;;;;5117098;28;20055;-66
2023/10/08 03:59:13;;;;;;;2.00;1.45;;;13.90;99.90;;;;;;5116994;28;20058;-65
2023/10/08 04:01:40;;;;;;;1.30;1.20;;;13.90;99.90;;;;;;5116641;28;20051;-65
2023/10/08 04:04:12;;;;;;;1.30;1.20;;;13.90;99.90;;;;;;5117452;28;20106;-66
2023/10/08 04:06:38;;;;;;;1.80;1.58;;;13.90;99.90;;;;;;5116214;28;20572;-65
2023/10/08 04:11:43;;;;;;;2.13;1.13;;;13.90;99.90;;;;;;5116299;28;20490;-66
2023/10/08 04:14:12;;;;;;;2.08;1.13;;;14.00;99.90;;;;;;5116795;28;20070;-66
2023/10/08 04:16:38;;;;;;;3.20;1.45;;;13.90;99.90;;;;;;5117704;28;20140;-65
2023/10/08 04:19:04;;;;;;;1.73;1.42;;;13.90;99.90;;;;;;5116121;28;20039;-65
2023/10/08 04:21:33;;;;;;;2.05;1.50;;;13.90;99.90;;;;;;5117447;28;20127;-66
2023/10/08 04:24:08;;;;;;;1.67;1.58;;;14.00;99.90;;;;;;5116199;28;20075;-66
2023/10/08 04:26:34;;;;;;;1.92;1.73;;;14.00;99.90;;;;;;5116997;28;20048;-65
2023/10/08 04:29:06;;;;;;;2.55;1.52;;;13.90;99.90;;;;;;5117136;28;20053;-65
2023/10/08 04:31:38;;;;;;;2.30;1.57;;;13.90;99.90;;;;;;5116667;28;20047;-65
2023/10/08 04:34:16;;;;;;;2.13;1.55;;;13.80;99.90;;;;;;5098976;28;20278;-65
2023/10/08 04:36:46;;;;;;;2.28;1.50;;;13.80;99.90;;;;;;5116086;28;20058;-65
2023/10/08 04:39:21;;;;;;;4.15;1.65;;;13.80;99.90;;;;;;5117235;28;20039;-65
2023/10/08 04:41:54;;;;;;;2.78;1.35;;;13.90;99.90;;;;;;5120239;28;20043;-65
2023/10/08 04:44:21;;;;;;;;;;;13.80;99.90;;;;;;5103101;28;20056;-65
2023/10/08 04:46:49;;;;;;;4.35;1.73;;;13.80;99.90;;;;;;5121199;28;19919;-65
2023/10/08 04:49:34;;;;;;;5.47;1.33;;;13.90;99.90;;;;;;5119775;28;20131;-65
2023/10/08 04:52:14;;;;;;;2.92;1.40;;;13.90;99.90;;;;;;5121211;28;20077;-65
2023/10/08 04:54:46;;;;;;;2.30;1.38;;;14.00;99.90;;;;;;5120272;28;20040;-65
2023/10/08 04:57:15;;;;;;;2.80;1.25;;;13.90;99.90;;;;;;5101713;28;20075;-65
2023/10/08 04:59:46;;;;;;;3.55;1.40;;;13.90;99.90;;;;;;5120381;28;20123;-66
2023/10/08 05:02:19;;;;;;;3.33;1.33;;;13.90;99.90;;;;;;5119626;28;20043;-65
2023/10/08 05:07:21;;;;;;;2.80;1.25;;;13.80;99.90;;;;;;5119913;28;20067;-65
2023/10/08 05:12:45;;;;;;;3.80;1.30;;;13.80;99.90;;;;;;5120698;28;20052;-66
2023/10/08 05:20:29;;;;;;;4.68;1.17;;;13.80;99.90;;;;;;5120143;28;20140;-65
2023/10/08 05:23:05;;;;;;;2.83;1.13;;;13.70;99.90;;;;;;5119702;28;20125;-65
2023/10/08 05:25:57;;;;;;;2.85;1.23;;;13.70;99.90;;;;;;5119013;28;20039;-66
2023/10/08 05:28:26;;;;;;;4.03;1.08;;;13.70;99.90;;;;;;5119268;28;20103;-65
2023/10/08 05:36:34;;;;;;;3.88;1.48;;;13.70;99.90;;;;;;5119176;28;20107;-65
2023/10/08 05:44:39;;;;;;;3.95;1.10;;;13.70;99.90;;;;;;5119396;28;20056;-67
2023/10/08 05:49:53;;;;;;;2.35;1.13;;;13.80;99.90;;;;;;5118949;28;20055;-64
2023/10/08 05:52:26;;;;;;;4.22;1.70;;;13.80;99.90;;;;;;5119549;28;20048;-66
2023/10/08 05:57:38;;;;;;;5.38;1.15;;;13.70;99.90;;;;;;5119141;28;20044;-65
2023/10/08 06:05:22;;;;;;;2.13;0.80;;;13.80;99.90;;;;;;5120278;28;20048;-66
2023/10/08 06:13:06;;;;;;;4.47;0.95;;;13.80;99.90;;;;;;5101402;28;20104;-65
2023/10/08 06:15:48;;;;;;;2.67;1.15;;;13.80;99.90;;;;;;5118629;28;20624;-65
2023/10/08 06:18:20;;;;;;;1.50;0.82;;;13.80;99.90;;;;;;5119556;28;20047;-65
2023/10/08 06:20:54;;;;;;;2.90;1.00;;;13.70;99.90;;;;;;5119831;28;20565;-66
2023/10/08 06:23:22;;;;;;;3.67;0.90;;;13.70;99.90;;;;;;5118079;28;20058;-66
2023/10/08 06:25:54;;;;;;;2.50;0.90;;;13.70;99.90;;;;;;5119691;28;20067;-66
2023/10/08 06:28:20;;;;;;;2.60;0.80;;;13.70;99.90;;;;;;5118352;28;20044;-66
2023/10/08 06:30:47;;;;;;;7.60;1.10;;;13.80;99.90;;;;;;5100951;28;20048;-66
2023/10/08 06:33:13;;;;;;;7.05;0.88;;;13.80;99.90;;;;;;5118848;28;20065;-66
2023/10/08 06:35:44;;;;;;;5.20;1.17;;;13.80;99.90;;;;;;5118552;28;20244;-66
2023/10/08 06:38:10;;;;;;;3.67;1.05;;;13.80;99.90;;;;;;5119446;28;20117;-66
2023/10/08 06:43:11;;;;;;;1.25;0.70;;;13.90;99.90;;;;;;5118828;28;20059;-65
2023/10/08 06:45:39;;;;;;;4.05;1.25;;;13.90;99.90;;;;;;5118358;28;20051;-66
2023/10/08 06:48:06;;;;;;;3.38;0.90;;;13.90;99.90;;;;;;5119160;28;20053;-66
2023/10/08 06:50:38;;;;;;;4.93;1.10;;;13.90;99.90;;;;;;5118475;28;20048;-67
2023/10/08 06:53:07;;;;;;;3.73;1.33;;;13.90;99.90;;;;;;5118127;28;20056;-66
2023/10/08 06:55:36;;;;;;;7.47;1.25;;;13.80;99.90;;;;;;5118909;28;20274;-67
2023/10/08 06:58:07;;;;;;;5.05;1.25;;;13.80;99.90;;;;;;5117848;28;20036;-65
2023/10/08 07:00:38;;;;;;;5.30;1.63;;;13.80;99.90;;;;;;5118825;28;20089;-65
2023/10/08 07:03:04;;;;;;;4.30;1.00;;;13.80;99.90;;;;;;5098850;28;20126;-65
2023/10/08 07:05:36;;;;;;;4.03;0.80;;;13.80;99.90;;;;;;5117758;28;20050;-65
2023/10/08 07:08:06;;;;;;;4.07;0.95;;;13.80;99.90;;;;;;5118235;28;20039;-65
2023/10/08 07:10:35;;;;;;;5.60;1.00;;;13.80;99.90;;;;;;5117364;28;20048;-66
2023/10/08 07:13:02;;;;;;;3.30;1.13;;;13.90;99.90;;;;;;5118429;28;20051;-65
2023/10/08 07:15:32;;;;;;;3.50;0.93;;;13.80;99.90;;;;;;5098494;28;20055;-65
2023/10/08 07:18:08;;;;;;;3.92;1.15;;;13.80;99.90;;;;;;5118191;28;20048;-65
2023/10/08 07:20:38;;;;;;;11.68;1.75;;;13.80;99.90;;;;;;5099163;28;20059;-65
2023/10/08 07:23:18;;;;;;;4.93;1.45;;;13.80;99.90;;;;;;5098750;28;20100;-65
2023/10/08 07:25:46;;;;;;;2.60;1.10;;;13.90;99.90;;;;;;5118224;28;20051;-65
2023/10/08 07:28:13;;;;;;;2.97;1.10;;;14.00;99.90;;;;;;5098631;28;20054;-66
2023/10/08 07:30:44;;;;;;;2.78;1.02;;;14.10;99.90;;;;;;5116858;28;20048;-67
2023/10/08 07:33:17;;;;;;;4.22;0.77;;;14.10;99.90;;;;;;5117719;28;20567;-66
2023/10/08 07:36:11;;;;;;;4.72;1.15;;;14.10;99.90;;;;;;5117052;28;20059;-65
2023/10/08 07:38:39;;;;;;;2.40;0.95;;;14.20;99.90;;;;;;5118140;28;20055;-65
2023/10/08 07:41:05;;;;;;;5.82;1.15;;;14.20;99.90;;;;;;5116652;28;20157;-66
2023/10/08 07:43:35;;;;;;;6.40;1.02;;;14.20;99.90;;;;;;5099771;28;20079;-65
2023/10/08 07:46:01;;;;;;;5.10;1.15;;;14.20;99.90;;;;;;5117311;28;20035;-66
2023/10/08 07:48:29;;;;;;;4.28;1.08;;;14.20;99.90;;;;;;5116883;28;20132;-66
2023/10/08 07:50:57;;;;;;;2.85;0.90;;;14.20;99.90;;;;;;5117636;28;20051;-66
2023/10/08 07:53:24;;;;;;;7.25;1.20;;;14.20;99.90;;;;;;5116489;28;20896;-65
2023/10/08 07:55:51;;;;;;;9.80;1.40;;;14.20;99.90;;;;;;5117670;28;20074;-67
2023/10/08 07:58:18;;;;;;;3.47;1.33;;;14.20;99.90;;;;;;5116547;28;20047;-65
2023/10/08 08:01:00;;;;;;;5.55;1.35;;;14.20;99.90;;;;;;5117730;28;20060;-65
2023/10/08 08:03:26;;;;;;;7.45;1.33;;;14.20;99.90;;;;;;5117495;28;20047;-66
2023/10/08 08:05:52;;;;;;;1.83;1.15;;;14.20;99.90;;;;;;5116913;28;20043;-66
2023/10/08 08:08:21;;;;;;;5.10;0.95;;;14.30;99.90;;;;;;5117502;28;20044;-66
2023/10/08 08:10:47;;;;;;;4.05;1.20;;;14.30;99.90;;;;;;5116439;28;20043;-65
2023/10/08 08:13:20;;;;;;;4.55;1.67;;;14.30;99.90;;;;;;5117438;28;20051;-66
2023/10/08 08:15:50;;;;;;;3.60;1.23;;;14.30;99.90;;;;;;5098146;28;20059;-65
2023/10/08 08:18:22;;;;;;;5.20;1.25;;;14.30;99.90;;;;;;5116473;28;20048;-66
2023/10/08 08:20:48;;;;;;;4.75;1.35;;;14.30;99.90;;;;;;5098815;28;20079;-66
2023/10/08 08:23:16;;;;;;;9.25;1.75;;;14.40;99.90;;;;;;5115819;28;20047;-66
2023/10/08 08:25:45;;;;;;;4.97;1.30;;;14.50;99.90;;;;;;5117067;28;20050;-66
2023/10/08 08:28:20;;;;;;;4.15;1.02;;;14.50;99.90;;;;;;5115934;28;20051;-66
2023/10/08 08:30:47;;;;;;;3.83;0.95;;;14.60;99.90;;;;;;5117133;28;20078;-66
2023/10/08 08:33:21;;;;;;;4.70;0.80;;;14.50;99.90;;;;;;5107108;28;20047;-66
2023/10/08 08:35:56;;;;;;;3.47;0.90;;;14.60;99.90;;;;;;5106888;28;20058;-66
2023/10/08 08:38:23;;;;;;;4.15;1.17;;;14.60;99.90;;;;;;5114740;28;20050;-66
2023/10/08 08:40:49;;;;;;;5.03;0.90;;;14.70;99.90;;;;;;5114839;28;20044;-66
2023/10/08 08:43:17;;;;;;;12.55;1.25;;;14.70;99.90;;;;;;5116369;28;20063;-66
2023/10/08 08:45:43;;;;;;;7.43;1.38;;;14.80;99.90;;;;;;5097309;28;20087;-65
2023/10/08 08:48:11;;;;;;;9.98;1.60;;;14.80;99.90;;;;;;5115747;28;20042;-66
2023/10/08 08:50:38;;;;;;;5.25;1.35;;;14.80;99.90;;;;;;5116886;28;20135;-66
2023/10/08 08:53:04;;;;;;;5.80;1.27;;;14.80;99.90;;;;;;5115427;28;20553;-64
2023/10/08 08:55:32;;;;;;;6.65;1.10;;;14.80;99.90;;;;;;5115731;28;20198;-66
2023/10/08 08:57:59;;;;;;;8.65;1.17;;;14.90;99.90;;;;;;5114951;28;20044;-65
2023/10/08 09:00:28;;;;;;;3.58;1.38;;;14.90;99.90;;;;;;5116200;28;20107;-66
2023/10/08 09:02:55;;;;;;;3.97;1.15;;;14.90;99.90;;;;;;5115688;28;20044;-66
2023/10/08 09:07:54;;;;;;;4.75;0.90;;;14.90;99.90;;;;;;5116718;28;20069;-66
2023/10/08 09:10:25;;;;;;;5.25;1.20;;;14.90;99.90;;;;;;5115375;28;20054;-67
2023/10/08 09:12:52;;;;;;;3.50;1.23;;;14.90;99.90;;;;;;5116624;28;20077;-66
2023/10/08 09:15:18;;;;;;;3.28;1.10;;;15.00;99.90;;;;;;5115045;28;20058;-64
2023/10/08 09:17:47;;;;;;;6.82;1.20;;;15.00;99.90;;;;;;5117206;28;20051;-66
2023/10/08 09:20:17;;;;;;;6.35;1.40;;;15.00;99.90;;;;;;5116660;28;20563;-66
2023/10/08 09:22:42;;;;;;;3.70;1.08;;;15.00;99.90;;;;;;5116250;28;20104;-66
2023/10/08 09:25:08;;;;;;;5.53;1.05;;;15.00;99.90;;;;;;5116944;28;20056;-71
2023/10/08 09:27:37;;;;;;;5.38;1.38;;;15.10;99.90;;;;;;5118674;28;20040;-69
2023/10/08 09:30:08;;;;;;;8.30;1.20;;;15.10;99.90;;;;;;5120199;28;20074;-66
2023/10/08 09:32:39;;;;;;;5.37;1.73;;;15.10;99.90;;;;;;5119407;28;20031;-65
2023/10/08 09:35:07;;;;;;;7.70;1.35;;;15.10;99.90;;;;;;5120923;28;20047;-67
2023/10/08 09:37:34;;;;;;;7.15;1.38;;;15.20;99.90;;;;;;5102151;28;20048;-66
2023/10/08 09:40:10;;;;;;;5.38;1.30;;;15.20;99.90;;;;;;5119606;28;20040;-66
2023/10/08 09:42:37;;;;;;;6.05;1.48;;;15.30;99.90;;;;;;5100022;28;20924;-73
2023/10/08 09:45:05;;;;;;;7.35;2.83;;;15.30;99.90;;;;;;5080060;28;20047;-67
2023/10/08 09:47:38;;;;;;;7.32;0.93;;;15.30;99.90;;;;;;5099832;28;20051;-65
2023/10/08 09:50:07;;;;;;;7.80;1.10;;;15.30;99.90;;;;;;5099280;28;20048;-65
2023/10/08 09:53:22;;;;;;;8.60;1.55;;;15.30;99.90;;;;;;5099107;28;20068;-63
2023/10/08 09:55:56;;;;;;;8.38;1.48;;;15.30;99.90;;;;;;5099580;28;20060;-66
2023/10/08 09:58:29;;;;;;;11.13;1.60;;;15.30;99.90;;;;;;5098424;28;20054;-65
2023/10/08 10:00:57;;;;;;;3.85;0.90;;;15.30;99.90;;;;;;5098649;28;20119;-72
2023/10/08 10:03:25;;;;;;;9.70;1.30;;;15.30;99.90;;;;;;5064362;28;20062;-71
2023/10/08 10:05:51;;;;;;;4.40;1.35;;;15.40;99.90;;;;;;5098558;28;20040;-76
2023/10/08 10:08:19;;;;;;;8.68;1.27;;;15.40;99.90;;;;;;5109543;28;20047;-74
2023/10/08 10:10:47;;;;;;;3.78;1.00;;;15.40;99.90;;;;;;5100363;28;20043;-75
2023/10/08 10:13:26;;;;;;;5.43;1.35;;;15.40;99.90;;;;;;5100908;28;20945;-76
2023/10/08 10:15:53;;;;;;;7.60;1.85;;;15.40;99.90;;;;;;5100956;28;20063;-74
2023/10/08 10:18:21;;;;;;;13.00;2.90;;;15.50;99.90;;;;;;5119389;28;20055;-75
2023/10/08 10:21:00;;;;;;;5.05;1.10;;;15.40;99.90;;;;;;5101499;28;20078;-76
2023/10/08 10:23:42;;;;;;;5.05;1.10;;;15.50;99.90;;;;;;5118523;28;20095;-76
2023/10/08 10:26:33;;;;;;;6.18;1.20;;;15.50;99.90;;;;;;5119744;28;20047;-75
2023/10/08 10:29:14;;;;;;;7.10;1.35;;;15.50;99.90;;;;;;5086722;28;20067;-74
2023/10/08 10:31:46;;;;;;;4.55;1.15;;;15.50;99.90;;;;;;5118180;28;20047;-76
2023/10/08 10:34:18;;;;;;;13.23;1.60;;;15.50;99.90;;;;;;5119338;28;20422;-75
2023/10/08 10:36:49;;;;;;;5.20;1.30;;;15.50;99.90;;;;;;5100243;28;20103;-74
2023/10/08 10:39:32;;;;;;;7.28;1.25;;;15.50;99.90;;;;;;5100193;28;20066;-75
2023/10/08 10:42:06;;;;;;;5.10;1.67;;;15.50;99.90;;;;;;5119652;28;20052;-74
2023/10/08 10:44:37;;;;;;;7.80;1.45;;;15.50;99.90;;;;;;5100271;28;20059;-77
2023/10/08 10:57:43;;;;;;;6.93;1.15;;;15.50;99.90;;;;;;5117646;28;20494;-74
2023/10/08 11:03:02;;;;;;;4.20;1.65;;;15.50;99.90;;;;;;5118533;28;20069;-74
2023/10/08 11:05:32;;;;;;;7.32;1.35;;;15.50;99.90;;;;;;5100227;28;20383;-75
2023/10/08 11:08:06;;;;;;;8.65;1.25;;;15.70;99.90;;;;;;5118808;28;20051;-76
2023/10/08 11:10:42;;;;;;;6.55;1.42;;;15.70;99.90;;;;;;5099096;28;20090;-76
2023/10/08 11:13:14;;;;;;;5.45;1.33;;;15.70;99.90;;;;;;5118313;28;20051;-75
2023/10/08 11:15:51;;;;;;;4.53;1.20;;;15.70;99.90;;;;;;5099317;28;20047;-74
2023/10/08 11:18:20;;;;;;;4.15;1.30;;;15.70;99.90;;;;;;5118004;28;20040;-76
2023/10/08 11:20:51;;;;;;;5.10;1.50;;;15.60;99.90;;;;;;5118624;28;20091;-75
2023/10/08 11:23:42;;;;;;;7.78;1.45;;;15.60;99.90;;;;;;5098964;28;20677;-75
2023/10/08 11:26:12;;;;;;;3.47;1.00;;;15.60;99.90;;;;;;5099610;28;20085;-76
2023/10/08 11:28:42;;;;;;;7.63;1.60;;;15.60;99.90;;;;;;5118101;28;20108;-74
2023/10/08 11:31:11;;;;;;;7.45;1.52;;;15.60;99.90;;;;;;5099984;28;20052;-75
2023/10/08 11:33:41;;;;;;;7.82;1.38;;;15.70;99.90;;;;;;5118493;28;20152;-75
2023/10/08 11:36:53;;;;;;;6.55;1.35;;;15.70;99.90;;;;;;5117209;28;20477;-75
2023/10/08 11:39:11;;;;;;;6.43;1.25;;;15.80;99.90;;;;;;5107161;28;20051;-75
2023/10/08 11:41:50;;;;;;;6.32;1.45;;;15.80;99.90;;;;;;5117552;28;20050;-74
2023/10/08 11:44:19;;;;;;;6.65;1.65;;;15.80;99.90;;;;;;5099125;28;20445;-74
2023/10/08 11:46:46;;;;;;;7.85;1.75;;;15.90;99.90;;;;;;5118115;28;20079;-76
2023/10/08 11:49:25;;;;;;;8.95;1.70;;;15.80;99.90;;;;;;5097896;28;20091;-76
2023/10/08 11:51:55;;;;;;;8.57;1.42;;;15.90;99.90;;;;;;5118050;28;20077;-75
2023/10/08 11:54:23;;;;;;;7.15;1.30;;;15.90;99.90;;;;;;5099181;28;20056;-76
2023/10/08 11:56:49;;;;;;;3.47;1.08;;;15.90;99.90;;;;;;5117307;28;20047;-74
2023/10/08 11:59:18;;;;;;;14.90;1.60;;;16.10;99.90;;;;;;5099745;28;20062;-75
2023/10/08 12:01:44;;;;;;;7.80;1.60;;;16.00;99.90;;;;;;5116620;28;20081;-75
2023/10/08 12:04:15;;;;;;;9.48;1.73;;;16.10;99.90;;;;;;5117850;28;20112;-76
2023/10/08 12:06:46;;;;;;;4.90;1.15;;;16.10;99.90;;;;;;5098472;28;20067;-76
2023/10/08 12:09:15;;;;;;;5.82;1.20;;;16.10;99.90;;;;;;5117425;28;20122;-76
2023/10/08 12:11:42;;;;;;;5.97;1.70;;;16.20;99.90;;;;;;5117353;28;20044;-73
2023/10/08 12:14:08;;;;;;;9.15;1.15;;;16.20;99.90;;;;;;5116725;28;20079;-75
2023/10/08 12:16:39;;;;;;;4.18;1.15;;;16.20;99.90;;;;;;5082469;28;20043;-76
2023/10/08 12:19:15;;;;;;;10.25;1.90;;;16.20;99.90;;;;;;5116189;28;20055;-75
2023/10/08 12:21:41;;;;;;;9.35;1.55;;;16.20;99.90;;;;;;5099127;28;20100;-75
2023/10/08 12:24:12;;;;;;;4.30;2.28;;;16.20;99.90;;;;;;5097857;28;20062;-74
2023/10/08 12:26:45;;;;;;;5.70;1.30;;;16.20;99.90;;;;;;5117171;28;20051;-74
2023/10/08 12:29:14;;;;;;;6.13;1.45;;;16.30;99.90;;;;;;5099001;28;20043;-75
2023/10/08 12:31:40;;;;;;;8.80;1.00;;;16.30;99.90;;;;;;5116367;28;20047;-74
2023/10/08 12:34:06;;;;;;;4.75;1.58;;;16.30;99.90;;;;;;5099237;28;20055;-73
2023/10/08 12:36:36;;;;;;;9.02;1.42;;;16.30;99.90;;;;;;5116307;28;20059;-73
2023/10/08 12:39:09;;;;;;;6.30;1.15;;;16.30;99.90;;;;;;5081580;28;20156;-74
2023/10/08 12:41:38;;;;;;;4.18;0.93;;;16.40;99.90;;;;;;5116707;28;20075;-72
2023/10/08 12:44:07;;;;;;;8.32;1.50;;;16.40;99.90;;;;;;5116825;28;20051;-74
2023/10/08 12:46:33;;;;;;;5.82;1.25;;;16.40;99.90;;;;;;5099094;28;20397;-73
2023/10/08 12:49:01;;;;;;;7.57;1.27;;;16.60;99.90;;;;;;5116183;28;20043;-76
2023/10/08 12:51:31;;;;;;;8.32;1.52;;;16.60;99.90;;;;;;5117264;28;20048;-74
2023/10/08 12:54:08;;;;;;;5.20;1.17;;;16.60;99.90;;;;;;5097920;28;20051;-72
2023/10/08 12:56:55;;;;;;;6.95;1.15;;;16.50;99.90;;;;;;5098892;28;20067;-72
2023/10/08 12:59:23;;;;;;;6.97;1.50;;;16.50;99.90;;;;;;5098662;28;20060;-74
2023/10/08 13:01:54;;;;;;;7.05;1.33;;;16.50;99.90;;;;;;5117675;28;20055;-74
2023/10/08 13:04:34;;;;;;;6.75;1.17;;;16.50;99.90;;;;;;5121379;28;20036;-75
2023/10/08 13:07:02;;;;;;;4.93;1.00;;;16.50;99.90;;;;;;5120497;28;20058;-73
2023/10/08 13:09:31;;;;;;;8.35;1.38;;;16.50;99.90;;;;;;5120827;28;20043;-72
2023/10/08 13:11:59;;;;;;;5.45;1.10;;;16.50;99.90;;;;;;5121261;28;20042;-73
2023/10/08 13:14:25;;;;;;;4.75;1.40;;;16.50;99.90;;;;;;5101164;28;20051;-73
2023/10/08 13:16:55;;;;;;;4.10;1.20;;;16.40;99.90;;;;;;5102643;28;20094;-75
2023/10/08 13:19:23;;;;;;;5.47;1.00;;;16.40;99.90;;;;;;5119763;28;20066;-74
2023/10/08 13:21:52;;;;;;;10.30;1.40;;;16.50;99.90;;;;;;5102341;28;20064;-72
2023/10/08 13:24:18;;;;;;;3.00;1.13;;;16.40;99.90;;;;;;5101904;28;20043;-72
2023/10/08 13:26:47;;;;;;;8.27;1.08;;;16.60;99.90;;;;;;5101830;28;20044;-65
2023/10/08 13:29:13;;;;;;;5.18;1.38;;;16.70;99.90;;;;;;5120338;28;20126;-66
2023/10/08 13:31:39;;;;;;;6.60;1.25;;;16.70;99.90;;;;;;5101109;28;20039;-66
2023/10/08 13:34:08;;;;;;;5.22;1.27;;;16.70;99.90;;;;;;5120346;28;20040;-66
2023/10/08 13:36:37;;;;;;;4.70;1.33;;;16.70;99.90;;;;;;5118859;28;20048;-66
2023/10/08 13:39:08;;;;;;;4.20;1.02;;;16.80;99.90;;;;;;5102040;28;20046;-65
2023/10/08 13:41:35;;;;;;;4.38;1.00;;;16.80;99.90;;;;;;5119928;28;20057;-65
2023/10/08 13:44:05;;;;;;;5.95;1.13;;;16.90;99.90;;;;;;5119717;28;20548;-66
2023/10/08 13:46:35;;;;;;;7.28;1.33;;;16.80;99.90;;;;;;5120408;28;20122;-65
2023/10/08 13:49:01;;;;;;;7.25;1.50;;;16.80;99.90;;;;;;5119321;28;20058;-67
2023/10/08 13:51:27;;;;;;;4.25;1.23;;;16.70;99.90;;;;;;5120195;28;20118;-68
2023/10/08 13:53:59;;;;;;;5.30;1.10;;;16.70;99.90;;;;;;5101035;28;20114;-72
2023/10/08 13:56:30;;;;;;;4.32;1.10;;;16.80;99.90;;;;;;5120147;28;20047;-67
2023/10/08 13:59:18;;;;;;;5.27;1.00;;;16.80;99.90;;;;;;5094537;28;20090;-67
2023/10/08 14:01:51;;;;;;;6.40;0.98;;;16.80;99.90;;;;;;5078092;28;20056;-68
2023/10/08 14:04:19;;;;;;;4.55;1.20;;;16.80;99.90;;;;;;5079441;28;20052;-69
2023/10/08 14:06:51;;;;;;;3.83;1.20;;;16.90;99.90;;;;;;5076517;28;20056;-69
2023/10/08 14:09:21;;;;;;;5.95;1.02;;;16.90;99.90;;;;;;5079161;28;20048;-69
2023/10/08 14:11:50;;;;;;;6.65;1.10;;;17.00;99.90;;;;;;5077871;28;20536;-68
2023/10/08 14:14:17;;;;;;;5.05;1.30;;;16.90;99.90;;;;;;5078146;28;20044;-68
2023/10/08 14:16:43;;;;;;;5.75;1.33;;;17.00;99.90;;;;;;5077921;28;20090;-68
2023/10/08 14:19:12;;;;;;;4.53;1.20;;;16.90;99.90;;;;;;5078059;28;20074;-69
2023/10/08 14:21:55;;;;;;;4.15;1.85;;;17.00;99.90;;;;;;5077450;28;20057;-69